createdAt,value
2022-11-25T00:01:07.082Z,100584.38
2022-11-25T00:03:35.155Z,100579.75
2022-11-25T00:06:10.478Z,100579.66
2022-11-25T00:08:38.817Z,100583.13
2022-11-25T00:11:08.429Z,100580.13
2022-11-25T00:13:37.129Z,100570.88
2022-11-25T00:16:06.223Z,100576.69
2022-11-25T00:18:33.933Z,100560.69
2022-11-25T00:21:06.976Z,100556.63
2022-11-25T00:23:36.344Z,100558.88
2022-11-25T00:26:10.865Z,100561.00
2022-11-25T00:28:39.562Z,100547.41
2022-11-25T00:31:09.111Z,100548.63
2022-11-25T00:33:37.890Z,100541.22
2022-11-25T00:36:07.415Z,100533.78
2022-11-25T00:38:36.646Z,100534.09
2022-11-25T00:41:21.990Z,100536.00
2022-11-25T00:44:08.684Z,100529.47
2022-11-25T00:46:36.343Z,100535.19
2022-11-25T00:49:04.181Z,100534.09
2022-11-25T00:51:33.691Z,100538.97
2022-11-25T00:54:01.257Z,100540.34
2022-11-25T00:56:30.291Z,100537.28
2022-11-25T00:59:00.212Z,100535.88
2022-11-25T01:01:28.541Z,100526.72
2022-11-25T01:03:56.152Z,100529.78
2022-11-25T01:06:23.857Z,100533.69
2022-11-25T01:08:52.212Z,100529.84
2022-11-25T01:11:22.909Z,100539.34
2022-11-25T01:13:52.804Z,100535.56
2022-11-25T01:16:28.213Z,100532.69
2022-11-25T01:18:55.832Z,100526.47
2022-11-25T01:21:25.180Z,100522.53
2022-11-25T01:23:53.465Z,100516.31
2022-11-25T01:26:23.000Z,100519.69
2022-11-25T01:28:54.801Z,100519.69
2022-11-25T01:31:24.385Z,100524.03
2022-11-25T01:33:57.151Z,100515.78
2022-11-25T01:36:26.238Z,100522.84
2022-11-25T01:38:57.261Z,100520.09
2022-11-25T01:41:28.525Z,100511.22
2022-11-25T01:44:07.737Z,100518.81
2022-11-25T01:46:53.956Z,100522.28
2022-11-25T01:49:28.123Z,100509.69
2022-11-25T01:52:01.607Z,100519.09
2022-11-25T01:54:33.864Z,100520.56
2022-11-25T01:57:09.225Z,100514.31
2022-11-25T01:59:44.438Z,100508.84
2022-11-25T02:02:12.948Z,100503.88
2022-11-25T02:04:45.594Z,100507.09
2022-11-25T02:07:18.975Z,100509.41
2022-11-25T02:09:49.486Z,100508.25
2022-11-25T02:12:19.475Z,100503.59
2022-11-25T02:14:47.962Z,100501.66
2022-11-25T02:17:16.226Z,100496.25
2022-11-25T02:19:57.383Z,100497.72
2022-11-25T02:22:33.188Z,100498.31
2022-11-25T02:25:11.075Z,100488.25
2022-11-25T02:27:39.059Z,100495.97
2022-11-25T02:30:07.984Z,100500.91
2022-11-25T02:32:35.636Z,100501.38
2022-11-25T02:35:03.198Z,100502.25
2022-11-25T02:37:31.153Z,100499.38
2022-11-25T02:39:58.923Z,100492.91
2022-11-25T02:42:29.463Z,100491.59
2022-11-25T02:44:58.691Z,100490.38
2022-11-25T02:47:26.691Z,100478.63
2022-11-25T02:49:55.656Z,100480.81
2022-11-25T02:52:23.335Z,100486.81
2022-11-25T02:54:51.157Z,100480.19
2022-11-25T02:57:19.803Z,100480.13
2022-11-25T02:59:50.170Z,100482.50
2022-11-25T03:03:08.179Z,100481.31
2022-11-25T03:05:37.689Z,100478.31
2022-11-25T03:08:07.849Z,100479.03
2022-11-25T03:10:38.145Z,100481.41
2022-11-25T03:13:07.014Z,100476.88
2022-11-25T03:15:36.769Z,100477.47
2022-11-25T03:18:05.200Z,100472.06
2022-11-25T03:20:35.123Z,100476.28
2022-11-25T03:23:06.197Z,100475.06
2022-11-25T03:25:34.248Z,100475.66
2022-11-25T03:28:03.984Z,100469.44
2022-11-25T03:30:32.177Z,100469.19
2022-11-25T03:33:04.217Z,100468.22
2022-11-25T03:35:32.197Z,100470.75
2022-11-25T03:37:59.753Z,100477.72
2022-11-25T03:40:27.582Z,100481.06
2022-11-25T03:42:55.213Z,100487.91
2022-11-25T03:45:24.244Z,100487.69
2022-11-25T03:47:54.178Z,100496.47
2022-11-25T03:50:23.097Z,100498.16
2022-11-25T03:52:52.370Z,100505.13
2022-11-25T03:55:20.812Z,100505.13
2022-11-25T03:57:50.031Z,100506.81
2022-11-25T04:00:18.549Z,100505.84
2022-11-25T04:02:50.763Z,100504.75
2022-11-25T04:05:21.163Z,100510.78
2022-11-25T04:08:40.040Z,100511.63
2022-11-25T04:11:09.053Z,100520.28
2022-11-25T04:13:40.604Z,100517.38
2022-11-25T04:16:20.573Z,100508.25
2022-11-25T04:18:48.444Z,100510.31
2022-11-25T04:21:17.196Z,100499.59
2022-11-25T04:23:46.211Z,100503.22
2022-11-25T04:26:17.177Z,100510.19
2022-11-25T04:28:45.903Z,100500.31
2022-11-25T04:31:14.339Z,100510.88
2022-11-25T04:33:49.665Z,100514.50
2022-11-25T04:36:22.234Z,100516.19
2022-11-25T04:38:52.092Z,100510.75
2022-11-25T04:41:22.616Z,100514.25
2022-11-25T04:43:54.584Z,100507.28
2022-11-25T04:46:29.323Z,100523.16
2022-11-25T04:48:57.655Z,100524.97
2022-11-25T04:51:27.281Z,100524.97
2022-11-25T04:54:02.074Z,100532.06
2022-11-25T04:56:31.239Z,100534.56
2022-11-25T04:59:19.017Z,100534.56
2022-11-25T05:01:48.398Z,100532.91
2022-11-25T05:04:33.126Z,100537.22
2022-11-25T05:07:07.203Z,100538.94
2022-11-25T05:09:39.023Z,100539.88
2022-11-25T05:12:17.206Z,100545.16
2022-11-25T05:15:11.431Z,100545.16
2022-11-25T05:17:41.180Z,100546.13
2022-11-25T05:20:11.332Z,100546.25
2022-11-25T05:22:40.226Z,100543.63
2022-11-25T05:25:13.171Z,100547.22
2022-11-25T05:27:53.234Z,100559.63
2022-11-25T05:30:20.924Z,100557.06
2022-11-25T05:32:48.665Z,100562.50
2022-11-25T05:35:18.831Z,100563.47
2022-11-25T05:37:47.182Z,100553.00
2022-11-25T05:40:17.242Z,100547.72
2022-11-25T05:43:04.184Z,100555.66
2022-11-25T05:45:35.123Z,100559.13
2022-11-25T05:48:06.176Z,100556.38
2022-11-25T05:50:37.150Z,100557.06
2022-11-25T05:53:11.413Z,100551.69
2022-11-25T05:55:41.175Z,100547.94
2022-11-25T05:58:20.200Z,100552.28
2022-11-25T06:00:54.775Z,100563.59
2022-11-25T06:03:25.053Z,100566.81
2022-11-25T06:05:53.235Z,100571.16
2022-11-25T06:08:21.014Z,100568.41
2022-11-25T06:10:50.061Z,100565.75
2022-11-25T06:13:18.277Z,100569.00
2022-11-25T06:15:48.326Z,100562.72
2022-11-25T06:18:19.208Z,100557.91
2022-11-25T06:20:57.782Z,100561.53
2022-11-25T06:23:26.163Z,100565.75
2022-11-25T06:25:55.249Z,100560.56
2022-11-25T06:28:25.003Z,100573.69
2022-11-25T06:30:53.281Z,100576.34
2022-11-25T06:33:27.940Z,100575.25
2022-11-25T06:35:58.194Z,100568.00
2022-11-25T06:38:26.581Z,100581.03
2022-11-25T06:41:00.422Z,100586.06
2022-11-25T06:43:30.027Z,100592.09
2022-11-25T06:46:04.283Z,100589.19
2022-11-25T06:48:33.497Z,100588.13
2022-11-25T06:51:05.253Z,100588.84
2022-11-25T06:53:35.221Z,100585.81
2022-11-25T06:56:12.187Z,100587.72
2022-11-25T06:58:40.819Z,100590.38
2022-11-25T07:01:12.653Z,100602.41
2022-11-25T07:03:42.000Z,100602.03
2022-11-25T07:06:11.211Z,100614.44
2022-11-25T07:08:40.123Z,100625.75
2022-11-25T07:11:11.804Z,100632.59
2022-11-25T07:13:40.253Z,100637.53
2022-11-25T07:16:36.184Z,100631.88
2022-11-25T07:19:05.252Z,100631.88
2022-11-25T07:21:34.009Z,100642.34
2022-11-25T07:24:04.011Z,100666.94
2022-11-25T07:26:36.200Z,100669.19
2022-11-25T07:29:06.379Z,100662.97
2022-11-25T07:31:41.192Z,100671.63
2022-11-25T07:34:13.057Z,100676.78
2022-11-25T07:36:42.766Z,100680.06
2022-11-25T07:39:14.329Z,100685.84
2022-11-25T07:41:43.813Z,100690.19
2022-11-25T07:44:15.249Z,100699.22
2022-11-25T07:49:46.673Z,100701.75
2022-11-25T07:52:14.352Z,100695.34
2022-11-25T07:54:41.985Z,100693.53
2022-11-25T07:57:12.383Z,100700.53
2022-11-25T07:59:41.520Z,100701.38
2022-11-25T08:02:10.809Z,100700.53
2022-11-25T08:04:41.214Z,100711.88
2022-11-25T08:07:08.868Z,100714.38
2022-11-25T08:09:36.851Z,100711.75
2022-11-25T08:12:06.619Z,100714.25
2022-11-25T08:15:00.848Z,100719.56
2022-11-25T08:17:28.713Z,100721.25
2022-11-25T08:19:56.612Z,100726.53
2022-11-25T08:22:24.246Z,100722.94
2022-11-25T08:24:51.858Z,100724.50
2022-11-25T08:27:21.217Z,100723.78
2022-11-25T08:29:50.661Z,100728.97
2022-11-25T08:32:20.171Z,100734.28
2022-11-25T08:35:14.209Z,100742.22
2022-11-25T08:37:42.752Z,100741.38
2022-11-25T08:40:11.500Z,100748.59
2022-11-25T08:42:39.969Z,100755.72
2022-11-25T08:45:09.282Z,100744.25
2022-11-25T08:47:42.314Z,100755.00
2022-11-25T08:50:15.695Z,100755.13
2022-11-25T08:52:43.763Z,100756.94
2022-11-25T08:55:11.810Z,100764.06
2022-11-25T08:57:39.541Z,100764.06
2022-11-25T09:00:08.895Z,100762.34
2022-11-25T09:02:39.078Z,100764.28
2022-11-25T09:05:06.795Z,100765.00
2022-11-25T09:07:35.356Z,100766.72
2022-11-25T09:10:03.004Z,100768.97
2022-11-25T09:12:30.704Z,100764.91
2022-11-25T09:14:58.881Z,100766.56
2022-11-25T09:17:27.369Z,100770.19
2022-11-25T09:19:57.337Z,100783.47
2022-11-25T09:22:26.188Z,100786.81
2022-11-25T09:24:54.249Z,100784.88
2022-11-25T09:27:21.726Z,100785.63
2022-11-25T09:30:14.205Z,100779.94
2022-11-25T09:32:42.992Z,100787.53
2022-11-25T09:48:31.486Z,100788.31
2022-11-25T09:51:10.617Z,100794.34
2022-11-25T09:53:45.489Z,100790.84
2022-11-25T09:56:25.412Z,100791.84
2022-11-25T09:58:57.169Z,100797.00
2022-11-25T10:01:27.980Z,100796.63
2022-11-25T10:04:02.499Z,100804.59
2022-11-25T10:06:37.380Z,100809.50
2022-11-25T10:09:12.445Z,100810.25
2022-11-25T10:11:50.364Z,100819.63
2022-11-25T10:14:28.172Z,100811.41
2022-11-25T10:17:03.897Z,100822.34
2022-11-25T10:19:43.562Z,100829.94
2022-11-25T10:22:22.608Z,100831.34
2022-11-25T10:24:52.461Z,100834.88
2022-11-25T10:27:28.493Z,100839.94
2022-11-25T10:30:14.480Z,100842.78
2022-11-25T10:32:47.419Z,100840.72
2022-11-25T10:35:25.474Z,100855.31
2022-11-25T10:37:56.262Z,100848.78
2022-11-25T10:40:24.473Z,100845.59
2022-11-25T10:42:55.745Z,100847.00
2022-11-25T10:45:31.982Z,100847.84
2022-11-25T10:48:14.216Z,100857.94
2022-11-25T10:51:01.440Z,100848.03
2022-11-25T10:53:30.709Z,100857.00
2022-11-25T10:56:02.014Z,100861.34
2022-11-25T10:58:35.828Z,100854.78
2022-11-25T11:01:18.651Z,100865.16
2022-11-25T11:03:51.941Z,100868.94
2022-11-25T11:06:47.734Z,100867.09
2022-11-25T11:09:36.316Z,100868.78
2022-11-25T11:12:22.507Z,100872.16
2022-11-25T11:14:50.369Z,100866.84
2022-11-25T11:17:36.704Z,100872.00
2022-11-25T11:20:20.423Z,100880.00
2022-11-25T11:22:55.897Z,100876.97
2022-11-25T11:25:30.491Z,100881.31
2022-11-25T11:28:23.807Z,100891.44
2022-11-25T11:30:58.297Z,100888.53
2022-11-25T11:33:31.808Z,100883.66
2022-11-25T11:36:08.511Z,100892.63
2022-11-25T11:38:47.080Z,100893.31
2022-11-25T11:41:21.803Z,100885.94
2022-11-25T11:44:04.824Z,100892.09
2022-11-25T11:46:41.858Z,100892.94
2022-11-25T11:49:44.427Z,100890.97
2022-11-25T11:52:19.961Z,100899.41
2022-11-25T11:54:57.468Z,100899.13
2022-11-25T11:57:36.559Z,100902.66
2022-11-25T12:00:07.599Z,100915.38
2022-11-25T12:02:55.716Z,100906.16
2022-11-25T12:08:29.427Z,100912.19
2022-11-25T12:11:04.162Z,100913.59
2022-11-25T12:13:41.335Z,100913.19
2022-11-25T12:16:17.429Z,100915.31
2022-11-25T12:18:51.418Z,100933.94
2022-11-25T12:21:36.318Z,100931.63
2022-11-25T12:24:16.959Z,100938.22
2022-11-25T12:26:52.494Z,100934.16
2022-11-25T12:29:32.434Z,100936.72
2022-11-25T12:32:13.093Z,100942.47
2022-11-25T12:34:46.511Z,100935.34
2022-11-25T12:37:22.242Z,100945.16
2022-11-25T12:40:02.420Z,100938.69
2022-11-25T12:42:33.360Z,100945.16
2022-11-25T12:45:06.165Z,100946.28
2022-11-25T12:47:34.223Z,100949.09
2022-11-25T12:50:36.155Z,100950.03
2022-11-25T12:53:11.629Z,100954.97
2022-11-25T12:55:41.784Z,100958.94
2022-11-25T12:58:25.352Z,100957.63
2022-11-25T13:01:47.770Z,100970.13
2022-11-25T13:04:44.500Z,100974.84
2022-11-25T13:07:26.273Z,100982.84
2022-11-25T13:10:32.801Z,100982.84
2022-11-25T13:13:28.638Z,100981.75
2022-11-25T13:16:00.831Z,101008.22
2022-11-25T13:18:33.220Z,101006.41
2022-11-25T13:21:06.969Z,100995.66
2022-11-25T13:23:49.283Z,100994.66
2022-11-25T13:26:54.102Z,101000.69
2022-11-25T13:30:01.916Z,101000.69
2022-11-25T13:32:37.450Z,101004.19
2022-11-25T13:35:34.802Z,101017.50
2022-11-25T13:38:04.472Z,101020.03
2022-11-25T13:40:37.342Z,101025.34
2022-11-25T13:43:21.774Z,101028.00
2022-11-25T13:45:50.323Z,101028.75
2022-11-25T13:48:22.120Z,101033.22
2022-11-25T13:51:10.799Z,101031.41
2022-11-25T13:53:40.040Z,101032.94
2022-11-25T13:56:16.901Z,101052.72
2022-11-25T13:59:18.430Z,101050.88
2022-11-25T14:01:54.352Z,101054.38
2022-11-25T14:04:42.215Z,101044.00
2022-11-25T14:07:27.253Z,101055.38
2022-11-25T14:10:11.634Z,101060.25
2022-11-25T14:12:55.667Z,101059.53
2022-11-25T14:15:38.592Z,101069.31
2022-11-25T14:19:16.796Z,101074.78
2022-11-25T14:21:49.104Z,101088.94
2022-11-25T14:24:28.350Z,101085.72
2022-11-25T14:26:58.461Z,101084.97
2022-11-25T14:29:35.812Z,101087.78
2022-11-25T14:32:09.599Z,101087.66
2022-11-25T14:34:41.423Z,101091.44
2022-11-25T14:37:17.461Z,101099.56
2022-11-25T14:39:55.425Z,101105.72
2022-11-25T14:42:26.625Z,101101.47
2022-11-25T14:44:58.343Z,101103.44
2022-11-25T14:47:29.052Z,101106.94
2022-11-25T14:50:33.126Z,101103.44
2022-11-25T14:52:53.494Z,101091.09
2022-11-25T14:55:31.676Z,101109.97
2022-11-25T14:57:59.503Z,101110.25
2022-11-25T15:00:27.303Z,101106.00
2022-11-25T15:02:56.779Z,101107.38
2022-11-25T15:05:27.677Z,101119.28
2022-11-25T15:08:03.865Z,101117.56
2022-11-25T15:10:40.556Z,101117.81
2022-11-25T15:13:25.373Z,101125.22
2022-11-25T15:15:55.552Z,101129.81
2022-11-25T15:18:27.460Z,101128.28
2022-11-25T15:20:59.649Z,101136.50
2022-11-25T15:23:55.422Z,101139.44
2022-11-25T15:26:28.883Z,101139.06
2022-11-25T15:29:22.096Z,101142.97
2022-11-25T15:31:53.225Z,101151.31
2022-11-25T15:34:25.623Z,101152.41
2022-11-25T15:36:54.599Z,101160.75
2022-11-25T15:39:29.408Z,101159.19
2022-11-25T15:42:03.615Z,101159.44
2022-11-25T15:44:34.336Z,101158.81
2022-11-25T15:47:05.038Z,101164.38
2022-11-25T15:49:36.063Z,101170.78
2022-11-25T15:52:08.593Z,101172.72
2022-11-25T15:54:43.805Z,101181.06
2022-11-25T15:57:19.809Z,101175.88
2022-11-25T15:59:51.520Z,101184.91
2022-11-25T16:02:33.515Z,101199.19
2022-11-25T16:05:33.676Z,101197.63
2022-11-25T16:08:33.689Z,101204.97
2022-11-25T16:11:12.482Z,101212.47
2022-11-25T16:13:42.806Z,101220.69
2022-11-25T16:16:17.786Z,101223.72
2022-11-25T16:19:05.002Z,101221.31
2022-11-25T16:21:43.507Z,101219.00
2022-11-25T16:24:24.739Z,101225.38
2022-11-25T16:26:57.511Z,101238.91
2022-11-25T16:29:31.309Z,101239.97
2022-11-25T16:31:59.321Z,101245.56
2022-11-25T16:34:28.035Z,101247.38
2022-11-25T16:36:55.837Z,101246.66
2022-11-25T16:39:25.939Z,101258.97
2022-11-25T16:42:02.433Z,101257.16
2022-11-25T16:44:31.799Z,101269.69
2022-11-25T16:47:00.256Z,101261.72
2022-11-25T16:49:30.959Z,101271.50
2022-11-25T16:51:59.405Z,101271.63
2022-11-25T16:54:27.566Z,101278.88
2022-11-25T16:56:56.432Z,101273.78
2022-11-25T16:59:30.822Z,101285.50
2022-11-25T17:02:00.857Z,101292.00
2022-11-25T17:04:29.281Z,101290.53
2022-11-25T17:07:31.022Z,101300.41
2022-11-25T17:09:45.900Z,101302.44
2022-11-25T17:12:17.151Z,101305.34
2022-11-25T17:14:48.739Z,101307.28
2022-11-25T17:17:24.952Z,101316.31
2022-11-25T17:19:55.438Z,101315.72
2022-11-25T17:22:26.489Z,101320.38
2022-11-25T17:24:55.048Z,101326.03
2022-11-25T17:27:25.862Z,101329.03
2022-11-25T17:29:56.663Z,101331.19
2022-11-25T17:32:25.356Z,101337.66
2022-11-25T17:34:53.501Z,101340.66
2022-11-25T17:37:23.861Z,101347.13
2022-11-25T17:39:53.379Z,101350.03
2022-11-25T17:42:27.616Z,101353.72
2022-11-25T17:44:57.543Z,101358.31
2022-11-25T17:47:25.265Z,101360.34
2022-11-25T17:49:53.464Z,101363.94
2022-11-25T17:52:21.078Z,101365.88
2022-11-25T17:54:48.826Z,101370.44
2022-11-25T17:57:20.617Z,101381.06
2022-11-25T17:59:50.481Z,101380.31
2022-11-25T18:02:23.539Z,101392.72
2022-11-25T18:04:51.440Z,101395.38
2022-11-25T18:07:19.351Z,101396.34
2022-11-25T18:09:47.436Z,101411.41
2022-11-25T18:12:19.678Z,101404.41
2022-11-25T18:14:47.473Z,101412.38
2022-11-25T18:17:18.934Z,101414.19
2022-11-25T18:19:54.570Z,101425.63
2022-11-25T18:22:24.770Z,101427.44
2022-11-25T18:24:53.430Z,101422.13
2022-11-25T18:27:24.688Z,101422.97
2022-11-25T18:29:53.093Z,101422.03
2022-11-25T18:32:20.759Z,101426.47
2022-11-25T18:34:50.394Z,101438.78
2022-11-25T18:37:18.128Z,101432.53
2022-11-25T18:39:46.425Z,101444.81
2022-11-25T18:42:24.047Z,101442.81
2022-11-25T18:44:51.806Z,101442.94
2022-11-25T18:47:19.982Z,101446.19
2022-11-25T18:49:52.348Z,101449.69
2022-11-25T18:52:24.652Z,101454.16
2022-11-25T18:54:52.249Z,101461.19
2022-11-25T18:57:20.004Z,101470.00
2022-11-25T19:00:00.225Z,101463.84
2022-11-25T19:02:36.222Z,101476.16
2022-11-25T19:05:15.423Z,101482.31
2022-11-25T19:07:46.044Z,101481.66
2022-11-25T19:10:15.440Z,101481.78
2022-11-25T19:12:45.123Z,101485.38
2022-11-25T19:15:16.962Z,101484.53
2022-11-25T19:17:46.241Z,101484.63
2022-11-25T19:20:16.111Z,101487.50
2022-11-25T19:22:45.451Z,101496.41
2022-11-25T19:25:13.809Z,101505.34
2022-11-25T19:27:45.552Z,101498.53
2022-11-25T19:30:17.430Z,101508.41
2022-11-25T19:32:47.250Z,101508.63
2022-11-25T19:35:17.959Z,101515.84
2022-11-25T19:37:47.031Z,101520.59
2022-11-25T19:40:16.376Z,101523.38
2022-11-25T19:42:45.869Z,101528.03
2022-11-25T19:45:15.751Z,101530.88
2022-11-25T19:47:51.682Z,101535.53
2022-11-25T19:50:23.654Z,101535.84
2022-11-25T19:52:53.787Z,101537.75
2022-11-25T19:55:24.441Z,101549.41
2022-11-25T19:57:53.140Z,101561.94
2022-11-25T20:00:23.520Z,101567.34
2022-11-25T20:02:54.741Z,101571.84
2022-11-25T20:05:26.691Z,101573.84
2022-11-25T20:07:55.607Z,101579.34
2022-11-25T20:10:49.142Z,101590.91
2022-11-25T20:13:17.347Z,101591.03
2022-11-25T20:15:45.929Z,101593.00
2022-11-25T20:18:18.351Z,101593.22
2022-11-25T20:20:48.743Z,101604.78
2022-11-25T20:23:25.270Z,101606.66
2022-11-25T20:25:53.511Z,101611.22
2022-11-25T20:28:23.947Z,101610.38
2022-11-25T20:30:52.502Z,101609.72
2022-11-25T20:33:24.578Z,101615.13
2022-11-25T20:35:56.847Z,101626.66
2022-11-25T20:38:32.065Z,101630.44
2022-11-25T20:41:01.440Z,101631.41
2022-11-25T20:43:31.843Z,101642.28
2022-11-25T20:46:02.050Z,101641.53
2022-11-25T20:48:30.392Z,101644.38
2022-11-25T20:51:01.237Z,101656.88
2022-11-25T20:53:32.239Z,101652.59
2022-11-25T20:56:01.440Z,101653.66
2022-11-25T20:58:32.149Z,101653.00
2022-11-25T21:01:00.532Z,101657.66
2022-11-25T21:03:28.961Z,101664.94
2022-11-25T21:05:57.968Z,101667.78
2022-11-25T21:08:29.990Z,101673.25
2022-11-25T21:10:59.526Z,101674.38
2022-11-25T21:13:29.458Z,101681.69
2022-11-25T21:15:57.621Z,101684.59
2022-11-25T21:18:26.547Z,101687.44
2022-11-25T21:20:58.467Z,101682.44
2022-11-25T21:23:29.952Z,101692.25
2022-11-25T21:26:05.459Z,101702.09
2022-11-25T21:28:36.804Z,101700.56
2022-11-25T21:31:09.836Z,101704.34
2022-11-25T21:33:39.437Z,101713.31
2022-11-25T21:36:11.714Z,101717.94
2022-11-25T21:38:39.442Z,101719.06
2022-11-25T21:41:08.804Z,101717.53
2022-11-25T21:43:41.051Z,101720.47
2022-11-25T21:46:13.540Z,101730.38
2022-11-25T21:48:42.122Z,101733.28
2022-11-25T21:51:12.450Z,101736.13
2022-11-25T21:53:42.340Z,101746.88
2022-11-25T21:56:19.556Z,101747.13
2022-11-25T21:58:51.013Z,101749.22
2022-11-25T22:01:19.471Z,101753.81
2022-11-25T22:03:47.120Z,101768.16
2022-11-25T22:06:20.670Z,101770.13
2022-11-25T22:08:48.309Z,101772.09
2022-11-25T22:11:20.734Z,101767.13
2022-11-25T22:13:50.637Z,101769.97
2022-11-25T22:16:25.603Z,101767.56
2022-11-25T22:18:54.068Z,101765.09
2022-11-25T22:21:22.110Z,101764.34
2022-11-25T22:23:50.295Z,101773.28
2022-11-25T22:26:24.273Z,101782.25
2022-11-25T22:28:53.898Z,101777.03
2022-11-25T22:31:22.105Z,101771.84
2022-11-25T22:33:51.423Z,101770.13
2022-11-25T22:36:34.243Z,101775.59
2022-11-25T22:39:12.980Z,101778.22
2022-11-25T22:41:42.955Z,101784.47
2022-11-25T22:44:18.489Z,101789.75
2022-11-25T22:46:46.672Z,101788.97
2022-11-25T22:49:28.588Z,101795.28
2022-11-25T22:51:57.557Z,101806.00
2022-11-25T22:54:25.414Z,101803.63
2022-11-25T22:56:54.619Z,101813.50
2022-11-25T22:59:22.225Z,101820.66
2022-11-25T23:01:50.518Z,101825.25
2022-11-25T23:04:19.913Z,101822.78
2022-11-25T23:06:50.423Z,101827.28
2022-11-25T23:09:19.900Z,101835.38
2022-11-25T23:11:49.459Z,101840.81
2022-11-25T23:14:19.395Z,101844.50
2022-11-25T23:16:47.166Z,101845.47
2022-11-25T23:19:16.671Z,101847.38
2022-11-25T23:21:45.926Z,101848.38
2022-11-25T23:24:16.864Z,101855.53
2022-11-25T23:26:45.135Z,101853.81
2022-11-25T23:29:12.791Z,101856.47
2022-11-25T23:31:41.956Z,101847.78
2022-11-25T23:34:13.614Z,101861.03
2022-11-25T23:36:45.524Z,101853.19
2022-11-25T23:39:19.951Z,101863.00
2022-11-25T23:41:48.736Z,101853.44
2022-11-25T23:44:23.489Z,101864.03
2022-11-25T23:46:53.762Z,101858.00
2022-11-25T23:49:31.539Z,101862.50
2022-11-25T23:52:07.243Z,101859.16
2022-11-25T23:54:40.942Z,101860.16
2022-11-25T23:57:14.948Z,101862.03
2022-11-25T23:59:43.423Z,101863.13
